CYNL

METAR CYNL 030100Z AUTO 11010KT 9SM BKN045 BKN090 M18/M20 A2982 RMK AO1 SLP173
METAR
LOCATION
CYNL
DATE - TIME
030100Z
WIND
110 TRUE @ 10 KNOTS
VISIBILITY
9SM
RUNWAY VISUAL RANGE
NOT REPORTED
WEATHER
CLOUDINESS
BKN045 BKN090
TEMP / DEWPOINT
-18 ºC / -20 ºC
ALTIMETER
29.82 in. Hg
RECENT WEATHER
NOT REPORTED
WIND SHEAR
NOT REPORTED
REMARKS
RMK AO1 SLP173
SEA LEVEL PRESSURE: hPa

CYNL

METAR CYNL 030000Z AUTO 10008KT 9SM SCT049 OVC088 M18/M20 A2981 RMK AO1 SLP173
METAR
LOCATION
CYNL
DATE - TIME
030000Z
WIND
100 TRUE @ 8 KNOTS
VISIBILITY
9SM
RUNWAY VISUAL RANGE
NOT REPORTED
WEATHER
CLOUDINESS
SCT049 OVC088
TEMP / DEWPOINT
-18 ºC / -20 ºC
ALTIMETER
29.81 in. Hg
RECENT WEATHER
NOT REPORTED
WIND SHEAR
NOT REPORTED
REMARKS
RMK AO1 SLP173
SEA LEVEL PRESSURE: hPa

CYNL

METAR CYNL 022300Z AUTO 10007KT 9SM OVC090 M18/M21 A2982 RMK AO1 SLP180
METAR
LOCATION
CYNL
DATE - TIME
022300Z
WIND
100 TRUE @ 7 KNOTS
VISIBILITY
9SM
RUNWAY VISUAL RANGE
NOT REPORTED
WEATHER
CLOUDINESS
OVC090
TEMP / DEWPOINT
-18 ºC / -21 ºC
ALTIMETER
29.82 in. Hg
RECENT WEATHER
NOT REPORTED
WIND SHEAR
NOT REPORTED
REMARKS
RMK AO1 SLP180
SEA LEVEL PRESSURE: hPa

Your time UTC time
 
 
Weather data provided by AXYS Technologies Inc., www.axystechnologies.com
 
Station History